Terminal Aerodrome Forecast
Issued by NWS Riverton, WY

Home | Current Version | Previous Version | Text Only | Print | Product List | Glossary On
Versions: 1 2 3 4 5 6 7 8 9 10 11 12 13 14 15 16 17 18 19 20 21 22 23 24 25 26 27 28 29
000
FTUS45 KRIW 182300 AAA
TAFRIW
TAF AMD
KRIW 182343Z 1900/1924 VRB04KT 3SM -SN BR BKN003
      TEMPO 1900/1904 1/2SM FG OVC002
     FM190400 VRB03KT 3SM -SN BR BKN003
     FM190700 VRB03KT 5SM BR BKN004
     FM191600 VRB04KT P6SM SCT004=

USA.gov is the U.S. government's official web portal to all federal, state and local government web resources and services.